createdAt,value
2022-09-27T00:00:07.434Z,0.40
2022-09-27T00:02:34.021Z,0.47
2022-09-27T00:05:00.623Z,0.40
2022-09-27T00:07:27.151Z,0.40
2022-09-27T00:09:53.690Z,0.30
2022-09-27T00:12:21.606Z,0.40
2022-09-27T00:14:48.153Z,0.30
2022-09-27T00:17:14.734Z,0.40
2022-09-27T00:19:41.349Z,0.43
2022-09-27T00:22:07.912Z,0.60
2022-09-27T00:24:34.510Z,0.40
2022-09-27T00:27:01.067Z,0.30
2022-09-27T00:29:29.019Z,0.40
2022-09-27T00:31:55.607Z,0.40
2022-09-27T00:34:24.046Z,0.50
2022-09-27T00:36:52.049Z,0.40
2022-09-27T00:39:19.068Z,0.40
2022-09-27T00:41:45.806Z,0.40
2022-09-27T00:44:58.213Z,0.40
2022-09-27T00:47:30.029Z,0.43
2022-09-27T00:50:01.025Z,0.47
2022-09-27T00:52:39.338Z,0.40
2022-09-27T00:55:10.036Z,0.40
2022-09-27T00:57:37.073Z,0.50
2022-09-27T01:00:08.696Z,0.40
2022-09-27T01:02:36.244Z,0.30
2022-09-27T01:05:03.854Z,0.40
2022-09-27T01:07:30.365Z,0.50
2022-09-27T01:09:57.288Z,0.40
2022-09-27T01:12:31.200Z,0.30
2022-09-27T01:15:10.370Z,0.50
2022-09-27T01:17:49.194Z,0.30
2022-09-27T01:20:41.026Z,0.50
2022-09-27T01:23:28.815Z,0.40
2022-09-27T01:26:08.136Z,0.40
2022-09-27T01:28:47.435Z,0.47
2022-09-27T01:31:21.400Z,0.43
2022-09-27T01:33:59.756Z,0.50
2022-09-27T01:36:31.354Z,0.50
2022-09-27T01:39:08.378Z,0.40
2022-09-27T01:41:39.354Z,0.60
2022-09-27T01:44:11.132Z,0.50
2022-09-27T01:46:41.902Z,0.60
2022-09-27T01:49:12.083Z,0.43
2022-09-27T01:51:44.207Z,0.60
2022-09-27T01:54:15.332Z,0.60
2022-09-27T01:56:46.223Z,0.47
2022-09-27T01:59:15.763Z,0.70
2022-09-27T02:01:48.579Z,0.50
2022-09-27T02:04:21.045Z,0.60
2022-09-27T02:06:51.547Z,0.60
2022-09-27T02:09:23.007Z,0.53
2022-09-27T02:11:56.335Z,0.60
2022-09-27T02:14:26.730Z,0.60
2022-09-27T02:16:59.348Z,0.60
2022-09-27T02:19:33.932Z,0.60
2022-09-27T02:22:12.518Z,0.60
2022-09-27T02:24:43.439Z,0.60
2022-09-27T02:27:14.848Z,0.80
2022-09-27T02:29:47.157Z,0.50
2022-09-27T02:32:15.123Z,0.80
2022-09-27T02:34:43.794Z,0.80
2022-09-27T02:37:10.822Z,0.80
2022-09-27T02:39:37.812Z,0.73
2022-09-27T02:42:05.384Z,1.00
2022-09-27T02:44:32.281Z,0.80
2022-09-27T02:47:24.231Z,1.03
2022-09-27T02:50:04.916Z,0.90
2022-09-27T02:52:42.570Z,0.80
2022-09-27T02:55:17.969Z,0.80
2022-09-27T02:57:58.816Z,0.70
2022-09-27T03:00:32.315Z,0.90
2022-09-27T03:03:08.910Z,1.00
2022-09-27T03:05:41.492Z,0.90
2022-09-27T03:08:08.374Z,0.80
2022-09-27T03:10:34.920Z,1.30
2022-09-27T03:13:01.976Z,0.90
2022-09-27T03:15:28.502Z,0.77
2022-09-27T03:17:55.055Z,1.00
2022-09-27T03:20:22.995Z,0.70
2022-09-27T03:22:49.542Z,0.70
2022-09-27T03:25:16.275Z,0.60
2022-09-27T03:27:43.636Z,0.77
2022-09-27T03:30:12.266Z,0.70
2022-09-27T03:32:44.128Z,1.00
2022-09-27T03:35:12.608Z,0.73
2022-09-27T03:37:40.749Z,0.80
2022-09-27T03:40:08.427Z,0.77
2022-09-27T03:42:35.032Z,0.80
2022-09-27T03:45:01.580Z,0.90
2022-09-27T03:47:28.118Z,0.77
2022-09-27T03:49:54.670Z,0.50
2022-09-27T03:52:21.240Z,0.60
2022-09-27T03:54:49.280Z,0.50
2022-09-27T03:57:16.103Z,0.67
2022-09-27T03:59:42.715Z,0.80
2022-09-27T04:02:09.248Z,0.73
2022-09-27T04:04:35.819Z,0.67
2022-09-27T04:07:02.365Z,0.80
2022-09-27T04:09:28.905Z,0.80
2022-09-27T04:11:56.798Z,0.80
2022-09-27T04:14:23.413Z,0.70
2022-09-27T04:16:49.984Z,0.80
2022-09-27T04:19:16.682Z,0.90
2022-09-27T04:21:43.348Z,0.73
2022-09-27T04:24:09.887Z,0.60
2022-09-27T04:26:36.416Z,0.70
2022-09-27T04:29:04.317Z,0.73
2022-09-27T04:31:30.898Z,0.63
2022-09-27T04:33:57.744Z,0.50
2022-09-27T04:36:26.125Z,0.57
2022-09-27T04:38:53.020Z,0.80
2022-09-27T04:41:20.043Z,0.60
2022-09-27T04:43:46.593Z,0.70
2022-09-27T04:46:14.582Z,0.77
2022-09-27T04:48:41.143Z,0.50
2022-09-27T04:51:09.112Z,0.67
2022-09-27T04:53:35.960Z,0.70
2022-09-27T04:56:02.515Z,0.40
2022-09-27T04:58:29.039Z,0.50
2022-09-27T05:00:55.604Z,0.47
2022-09-27T05:03:23.658Z,0.53
2022-09-27T05:05:50.286Z,0.50
2022-09-27T05:08:16.870Z,0.50
2022-09-27T05:10:43.387Z,0.50
2022-09-27T05:13:10.018Z,0.60
2022-09-27T05:15:36.559Z,0.57
2022-09-27T05:18:03.271Z,0.40
2022-09-27T05:20:31.198Z,0.77
2022-09-27T05:22:57.738Z,0.50
2022-09-27T05:25:24.373Z,0.60
2022-09-27T05:27:51.604Z,0.63
2022-09-27T05:30:18.522Z,0.50
2022-09-27T05:32:46.180Z,0.50
2022-09-27T05:35:12.928Z,0.90
2022-09-27T05:37:41.039Z,0.40
2022-09-27T05:40:22.390Z,0.40
2022-09-27T05:42:55.561Z,0.53
2022-09-27T05:45:23.708Z,0.40
2022-09-27T05:47:54.044Z,0.50
2022-09-27T05:50:20.572Z,0.40
2022-09-27T05:52:48.760Z,0.50
2022-09-27T05:55:15.608Z,0.40
2022-09-27T05:57:42.120Z,0.60
2022-09-27T06:00:09.772Z,0.40
2022-09-27T06:02:36.334Z,0.50
2022-09-27T06:05:03.053Z,0.43
2022-09-27T06:07:30.476Z,0.40
2022-09-27T06:09:58.514Z,0.47
2022-09-27T06:12:25.062Z,0.50
2022-09-27T06:14:52.614Z,0.40
2022-09-27T06:17:19.159Z,0.40
2022-09-27T06:19:45.686Z,0.47
2022-09-27T06:22:12.226Z,0.60
2022-09-27T06:24:38.780Z,0.50
2022-09-27T06:27:06.682Z,0.37
2022-09-27T06:29:33.276Z,0.40
2022-09-27T06:31:59.885Z,0.37
2022-09-27T06:34:26.424Z,0.63
2022-09-27T06:36:52.976Z,0.40
2022-09-27T06:39:19.523Z,0.60
2022-09-27T06:41:46.054Z,0.43
2022-09-27T06:44:13.953Z,0.40
2022-09-27T06:46:42.847Z,0.73
2022-09-27T06:49:09.406Z,0.70
2022-09-27T06:51:36.026Z,0.40
2022-09-27T06:54:02.559Z,0.50
2022-09-27T06:56:29.101Z,0.50
2022-09-27T06:58:55.631Z,0.43
2022-09-27T07:01:27.693Z,0.50
2022-09-27T07:03:54.284Z,0.40
2022-09-27T07:06:22.056Z,0.40
2022-09-27T07:08:50.707Z,0.47
2022-09-27T07:11:17.248Z,0.43
2022-09-27T07:13:43.801Z,0.30
2022-09-27T07:16:11.529Z,0.23
2022-09-27T07:18:39.789Z,0.40
2022-09-27T07:21:06.571Z,0.30
2022-09-27T07:23:33.087Z,0.40
2022-09-27T07:26:01.078Z,0.43
2022-09-27T07:28:27.620Z,0.40
2022-09-27T07:30:55.244Z,0.50
2022-09-27T07:33:21.809Z,0.50
2022-09-27T07:35:49.902Z,0.50
2022-09-27T07:38:16.642Z,0.40
2022-09-27T07:40:43.730Z,0.50
2022-09-27T07:43:10.294Z,0.40
2022-09-27T07:45:36.958Z,0.40
2022-09-27T07:48:05.161Z,0.30
2022-09-27T07:50:31.732Z,0.40
2022-09-27T07:52:59.648Z,0.33
2022-09-27T07:55:26.287Z,0.40
2022-09-27T07:58:01.607Z,0.30
2022-09-27T08:00:28.192Z,0.40
2022-09-27T08:02:54.724Z,0.30
2022-09-27T08:05:21.582Z,0.30
2022-09-27T08:07:48.110Z,0.33
2022-09-27T08:10:16.137Z,0.40
2022-09-27T08:12:43.384Z,0.33
2022-09-27T08:15:10.838Z,0.40
2022-09-27T08:17:37.404Z,0.40
2022-09-27T08:20:04.377Z,0.40
2022-09-27T08:22:30.968Z,0.40
2022-09-27T08:24:57.499Z,0.50
2022-09-27T08:27:25.458Z,0.50
2022-09-27T08:29:52.027Z,0.60
2022-09-27T08:32:22.985Z,0.40
2022-09-27T08:34:49.995Z,0.40
2022-09-27T08:37:16.580Z,0.30
2022-09-27T08:39:47.568Z,0.50
2022-09-27T08:42:24.678Z,0.30
2022-09-27T08:45:00.967Z,0.40
2022-09-27T08:47:35.112Z,0.20
2022-09-27T08:50:04.468Z,0.40
2022-09-27T08:52:35.374Z,0.40
2022-09-27T08:55:10.182Z,0.40
2022-09-27T08:57:37.006Z,0.37
2022-09-27T09:00:08.077Z,0.40
2022-09-27T09:02:36.003Z,0.50
2022-09-27T09:05:08.540Z,0.30
2022-09-27T09:07:55.561Z,0.50
2022-09-27T09:10:33.031Z,0.30
2022-09-27T09:13:08.357Z,0.50
2022-09-27T09:15:44.656Z,0.47
2022-09-27T09:18:24.282Z,0.40
2022-09-27T09:20:58.807Z,0.60
2022-09-27T09:23:59.192Z,0.83
2022-09-27T09:26:34.748Z,0.70
2022-09-27T09:29:14.041Z,0.70
2022-09-27T09:31:48.715Z,0.40
2022-09-27T09:34:20.288Z,0.40
2022-09-27T09:36:52.262Z,0.50
2022-09-27T09:39:24.327Z,0.63
2022-09-27T09:42:03.413Z,0.40
2022-09-27T09:44:34.486Z,0.30
2022-09-27T09:47:03.999Z,0.47
2022-09-27T09:49:35.592Z,0.60
2022-09-27T09:52:09.127Z,0.37
2022-09-27T09:54:40.334Z,0.50
2022-09-27T09:57:13.564Z,0.40
2022-09-27T09:59:43.679Z,0.80
2022-09-27T10:02:23.514Z,0.37
2022-09-27T10:04:50.344Z,0.40
2022-09-27T10:07:22.389Z,0.37
2022-09-27T10:09:49.386Z,0.37
2022-09-27T10:12:15.987Z,0.40
2022-09-27T10:14:46.253Z,0.60
2022-09-27T10:17:18.333Z,1.27
2022-09-27T10:19:46.904Z,0.60
2022-09-27T10:22:21.447Z,0.50
2022-09-27T10:24:55.991Z,0.40
2022-09-27T10:27:23.105Z,0.30
2022-09-27T10:29:56.957Z,0.33
2022-09-27T10:32:27.416Z,0.40
2022-09-27T10:34:53.963Z,0.37
2022-09-27T10:37:22.723Z,0.40
2022-09-27T10:39:50.774Z,0.37
2022-09-27T10:42:31.991Z,0.30
2022-09-27T10:44:58.740Z,0.30
2022-09-27T10:47:26.741Z,0.50
2022-09-27T10:50:04.300Z,0.47
2022-09-27T10:52:31.082Z,0.47
2022-09-27T10:54:59.962Z,0.30
2022-09-27T10:57:28.745Z,0.40
2022-09-27T10:59:57.367Z,0.40
2022-09-27T11:02:29.200Z,0.63
2022-09-27T11:05:14.527Z,0.40
2022-09-27T11:07:49.353Z,0.33
2022-09-27T11:10:23.645Z,0.23
2022-09-27T11:13:06.236Z,0.40
2022-09-27T11:15:40.929Z,0.30
2022-09-27T11:18:18.332Z,0.40
2022-09-27T11:20:49.149Z,0.30
2022-09-27T11:23:32.296Z,0.40
2022-09-27T11:26:16.529Z,0.40
2022-09-27T11:28:51.278Z,0.33
2022-09-27T11:31:28.556Z,0.30
2022-09-27T11:34:15.684Z,0.40
2022-09-27T11:36:59.520Z,0.30
2022-09-27T11:39:32.968Z,0.20
2022-09-27T11:42:17.515Z,0.40
2022-09-27T11:45:26.853Z,0.23
2022-09-27T11:47:49.816Z,0.30
2022-09-27T11:50:39.905Z,0.60
2022-09-27T11:53:21.265Z,0.30
2022-09-27T11:55:58.572Z,0.30
2022-09-27T11:58:31.167Z,0.37
2022-09-27T12:01:12.311Z,0.40
2022-09-27T12:03:59.314Z,0.40
2022-09-27T12:06:35.371Z,0.37
2022-09-27T12:09:06.660Z,0.50
2022-09-27T12:11:39.434Z,0.50
2022-09-27T12:14:11.892Z,0.40
2022-09-27T12:16:40.631Z,0.40
2022-09-27T12:19:16.987Z,0.50
2022-09-27T12:21:45.299Z,0.60
2022-09-27T12:24:18.841Z,0.50
2022-09-27T12:26:48.011Z,0.40
2022-09-27T12:29:20.439Z,0.30
2022-09-27T12:31:55.864Z,0.50
2022-09-27T12:34:28.328Z,0.33
2022-09-27T12:37:04.292Z,0.40
2022-09-27T12:39:41.313Z,0.40
2022-09-27T12:42:16.415Z,0.60
2022-09-27T12:44:47.400Z,0.57
2022-09-27T12:47:30.982Z,0.53
2022-09-27T12:50:05.600Z,0.67
2022-09-27T12:52:37.071Z,0.40
2022-09-27T12:55:39.479Z,0.40
2022-09-27T12:58:24.470Z,0.40
2022-09-27T13:00:57.969Z,0.40
2022-09-27T13:03:55.871Z,0.40
2022-09-27T13:06:48.420Z,0.40
2022-09-27T13:09:49.850Z,0.50
2022-09-27T13:12:18.465Z,0.40
2022-09-27T13:14:59.607Z,0.57
2022-09-27T13:17:48.090Z,0.70
2022-09-27T13:20:51.310Z,0.57
2022-09-27T13:23:57.476Z,0.70
2022-09-27T13:26:43.973Z,0.47
2022-09-27T13:29:22.825Z,0.40
2022-09-27T13:32:20.965Z,0.63
2022-09-27T13:34:49.205Z,0.60
2022-09-27T13:37:43.822Z,0.43
2022-09-27T13:40:20.152Z,0.57
2022-09-27T13:42:55.706Z,0.40
2022-09-27T13:45:24.955Z,0.50
2022-09-27T13:47:54.226Z,0.60
2022-09-27T13:50:25.914Z,0.53
2022-09-27T13:53:02.504Z,0.57
2022-09-27T13:55:42.232Z,0.50
2022-09-27T13:58:23.420Z,0.80
2022-09-27T14:00:52.333Z,1.70
2022-09-27T14:03:52.226Z,1.20
2022-09-27T14:06:22.378Z,1.20
2022-09-27T14:08:51.600Z,0.90
2022-09-27T14:11:22.960Z,0.60
2022-09-27T14:13:52.164Z,0.53
2022-09-27T14:16:19.108Z,0.70
2022-09-27T14:18:48.518Z,0.50
2022-09-27T14:21:27.284Z,0.43
2022-09-27T14:23:53.803Z,0.50
2022-09-27T14:26:23.967Z,0.50
2022-09-27T14:28:52.914Z,0.60
2022-09-27T14:31:22.231Z,0.50
2022-09-27T14:33:49.986Z,0.87
2022-09-27T14:36:25.636Z,0.40
2022-09-27T14:38:52.376Z,0.50
2022-09-27T14:41:19.453Z,0.40
2022-09-27T14:43:47.389Z,0.60
2022-09-27T14:46:27.295Z,0.47
2022-09-27T14:48:54.514Z,0.60
2022-09-27T14:51:26.193Z,0.53
2022-09-27T14:53:54.385Z,0.50
2022-09-27T14:56:23.655Z,0.80
2022-09-27T14:58:54.114Z,0.70
2022-09-27T15:01:20.682Z,0.57
2022-09-27T15:03:49.188Z,0.33
2022-09-27T15:06:16.108Z,0.50
2022-09-27T15:08:43.106Z,0.50
2022-09-27T15:11:09.721Z,0.50
2022-09-27T15:13:37.677Z,0.70
2022-09-27T15:16:08.659Z,0.40
2022-09-27T15:18:43.769Z,0.57
2022-09-27T15:21:13.313Z,0.30
2022-09-27T15:23:41.142Z,0.50
2022-09-27T15:26:11.673Z,0.50
2022-09-27T15:28:43.158Z,0.40
2022-09-27T15:31:09.852Z,0.63
2022-09-27T15:33:36.762Z,0.50
2022-09-27T15:36:05.738Z,0.40
2022-09-27T15:38:34.818Z,0.83
2022-09-27T15:41:12.930Z,0.60
2022-09-27T15:43:45.322Z,0.67
2022-09-27T15:46:33.217Z,0.50
2022-09-27T15:49:27.576Z,0.60
2022-09-27T15:51:55.559Z,0.50
2022-09-27T15:54:24.827Z,0.70
2022-09-27T15:56:55.405Z,0.90
2022-09-27T15:59:24.122Z,0.90
2022-09-27T16:01:51.496Z,0.80
2022-09-27T16:04:18.322Z,0.70
2022-09-27T16:06:44.843Z,0.60
2022-09-27T16:09:15.125Z,0.70
2022-09-27T16:11:43.341Z,0.60
2022-09-27T16:14:09.848Z,0.60
2022-09-27T16:16:37.225Z,0.70
2022-09-27T16:19:03.762Z,0.53
2022-09-27T16:21:30.261Z,0.60
2022-09-27T16:23:56.742Z,0.53
2022-09-27T16:26:23.236Z,0.43
2022-09-27T16:28:51.059Z,0.50
2022-09-27T16:31:18.189Z,0.43
2022-09-27T16:33:47.575Z,0.50
2022-09-27T16:36:14.054Z,0.47
2022-09-27T16:38:40.750Z,0.70
2022-09-27T16:41:07.268Z,0.63
2022-09-27T16:43:33.941Z,0.53
2022-09-27T16:46:07.039Z,0.77
2022-09-27T16:48:33.730Z,0.50
2022-09-27T16:51:05.192Z,0.70
2022-09-27T16:53:31.694Z,0.40
2022-09-27T16:55:59.015Z,0.53
2022-09-27T16:58:25.518Z,0.50
2022-09-27T17:00:52.179Z,0.60
2022-09-27T17:03:20.053Z,0.60
2022-09-27T17:05:46.551Z,0.50
2022-09-27T17:08:13.038Z,0.50
2022-09-27T17:10:44.404Z,0.40
2022-09-27T17:13:10.989Z,0.50
2022-09-27T17:15:37.586Z,0.50
2022-09-27T17:18:04.260Z,0.50
2022-09-27T17:20:32.083Z,0.50
2022-09-27T17:22:58.560Z,0.60
2022-09-27T17:25:25.214Z,0.50
2022-09-27T17:27:51.671Z,0.50
2022-09-27T17:30:18.232Z,0.40
2022-09-27T17:32:44.723Z,0.60
2022-09-27T17:35:11.250Z,0.53
2022-09-27T17:37:39.121Z,0.70
2022-09-27T17:40:06.397Z,0.43
2022-09-27T17:42:32.899Z,0.60
2022-09-27T17:44:59.416Z,0.50
2022-09-27T17:47:27.289Z,0.63
2022-09-27T17:49:53.814Z,0.53
2022-09-27T17:52:20.341Z,0.60
2022-09-27T17:54:48.207Z,1.00
2022-09-27T17:57:14.685Z,1.30
2022-09-27T17:59:41.449Z,1.13
2022-09-27T18:02:08.107Z,1.23
2022-09-27T18:04:34.729Z,1.90
2022-09-27T18:07:01.315Z,1.33
2022-09-27T18:09:28.104Z,1.73
2022-09-27T18:11:55.922Z,2.93
2022-09-27T18:14:23.737Z,1.90
2022-09-27T18:16:50.231Z,1.20
2022-09-27T18:19:17.009Z,0.90
2022-09-27T18:21:43.604Z,0.80
2022-09-27T18:24:10.191Z,0.80
2022-09-27T18:26:36.843Z,0.80
2022-09-27T18:29:07.728Z,0.80
2022-09-27T18:31:34.455Z,0.70
2022-09-27T18:34:01.368Z,1.00
2022-09-27T18:36:28.058Z,1.10
2022-09-27T18:38:55.898Z,0.90
2022-09-27T18:41:24.083Z,0.90
2022-09-27T18:43:53.527Z,0.83
2022-09-27T18:46:37.262Z,0.97
2022-09-27T18:49:05.880Z,1.10
2022-09-27T18:51:33.652Z,0.87
2022-09-27T18:54:01.784Z,0.80
2022-09-27T18:56:29.215Z,0.70
2022-09-27T18:58:56.573Z,0.90
2022-09-27T19:01:25.289Z,0.77
2022-09-27T19:03:52.674Z,0.80
2022-09-27T19:06:20.508Z,0.90
2022-09-27T19:08:47.172Z,1.00
2022-09-27T19:11:15.295Z,0.93
2022-09-27T19:13:50.897Z,0.93
2022-09-27T19:16:18.115Z,1.20
2022-09-27T19:18:46.333Z,1.20
2022-09-27T19:21:14.742Z,1.00
2022-09-27T19:23:41.528Z,0.90
2022-09-27T19:26:11.366Z,1.00
2022-09-27T19:28:39.967Z,0.73
2022-09-27T19:31:07.886Z,1.00
2022-09-27T19:33:34.767Z,0.90
2022-09-27T19:36:04.154Z,1.00
2022-09-27T19:38:30.940Z,0.80
2022-09-27T19:40:57.614Z,0.77
2022-09-27T19:43:24.404Z,1.03
2022-09-27T19:45:50.889Z,1.10
2022-09-27T19:48:17.388Z,0.90
2022-09-27T19:50:43.913Z,0.93
2022-09-27T19:53:11.738Z,0.90
2022-09-27T19:55:38.224Z,1.00
2022-09-27T19:58:04.703Z,0.80
2022-09-27T20:00:31.226Z,0.70
2022-09-27T20:02:57.740Z,0.70
2022-09-27T20:05:24.229Z,0.80
2022-09-27T20:07:50.719Z,1.17
2022-09-27T20:10:18.599Z,1.00
2022-09-27T20:12:45.105Z,1.10
2022-09-27T20:15:11.566Z,1.03
2022-09-27T20:17:38.086Z,1.20
2022-09-27T20:20:05.412Z,1.63
2022-09-27T20:22:31.889Z,1.13
2022-09-27T20:24:58.440Z,1.17
2022-09-27T20:27:26.316Z,1.10
2022-09-27T20:29:52.794Z,1.10
2022-09-27T20:32:28.213Z,1.40
2022-09-27T20:34:54.899Z,1.23
2022-09-27T20:37:21.375Z,1.30
2022-09-27T20:39:47.834Z,1.50
2022-09-27T20:42:14.360Z,1.37
2022-09-27T20:44:42.189Z,1.20
2022-09-27T20:47:08.683Z,1.23
2022-09-27T20:49:35.197Z,1.03
2022-09-27T20:52:02.031Z,1.10
2022-09-27T20:54:28.505Z,1.20
2022-09-27T20:56:54.999Z,1.20
2022-09-27T20:59:22.964Z,1.00
2022-09-27T21:01:51.920Z,1.00
2022-09-27T21:04:19.752Z,1.13
2022-09-27T21:06:46.413Z,1.30
2022-09-27T21:09:14.022Z,1.20
2022-09-27T21:11:40.491Z,1.23
2022-09-27T21:14:06.977Z,1.40
2022-09-27T21:16:35.016Z,1.37
2022-09-27T21:19:03.028Z,1.33
2022-09-27T21:21:29.821Z,1.30
2022-09-27T21:23:58.498Z,1.63
2022-09-27T21:26:27.680Z,1.17
2022-09-27T21:28:56.079Z,1.30
2022-09-27T21:31:24.168Z,1.47
2022-09-27T21:33:52.390Z,1.30
2022-09-27T21:36:21.398Z,0.97
2022-09-27T21:38:47.875Z,1.20
2022-09-27T21:41:15.982Z,1.57
2022-09-27T21:43:43.917Z,1.40
2022-09-27T21:46:12.738Z,1.20
2022-09-27T21:48:42.407Z,1.20
2022-09-27T21:51:10.845Z,1.43
2022-09-27T21:53:40.374Z,1.20
2022-09-27T21:56:08.392Z,1.03
2022-09-27T21:58:35.955Z,0.90
2022-09-27T22:01:09.723Z,1.10
2022-09-27T22:03:36.731Z,1.10
2022-09-27T22:06:04.248Z,1.20
2022-09-27T22:08:31.195Z,1.57
2022-09-27T22:10:59.066Z,1.20
2022-09-27T22:13:26.722Z,1.20
2022-09-27T22:15:53.315Z,1.50
2022-09-27T22:18:20.003Z,1.50
2022-09-27T22:20:46.534Z,1.30
2022-09-27T22:23:13.264Z,1.20
2022-09-27T22:25:39.765Z,1.53
2022-09-27T22:28:07.605Z,1.30
2022-09-27T22:30:34.139Z,1.03
2022-09-27T22:33:01.057Z,1.27
2022-09-27T22:35:27.543Z,1.40
2022-09-27T22:37:54.024Z,1.27
2022-09-27T22:40:20.534Z,1.20
2022-09-27T22:42:47.011Z,1.10
2022-09-27T22:45:14.901Z,1.53
2022-09-27T22:47:41.390Z,1.23
2022-09-27T22:50:08.437Z,1.33
2022-09-27T22:52:34.911Z,1.20
2022-09-27T22:55:01.363Z,0.97
2022-09-27T22:57:27.861Z,1.10
2022-09-27T22:59:54.342Z,1.00
2022-09-27T23:02:22.186Z,1.30
2022-09-27T23:04:48.648Z,1.10
2022-09-27T23:07:15.235Z,1.10
2022-09-27T23:09:41.748Z,1.17
2022-09-27T23:12:08.220Z,1.07
2022-09-27T23:14:35.855Z,1.00
2022-09-27T23:17:03.767Z,1.13
2022-09-27T23:19:31.622Z,0.90
2022-09-27T23:21:58.082Z,0.97
2022-09-27T23:24:24.575Z,1.27
2022-09-27T23:26:51.130Z,1.00
2022-09-27T23:29:17.704Z,0.90
2022-09-27T23:31:44.374Z,1.20
2022-09-27T23:34:11.446Z,1.10
2022-09-27T23:36:39.269Z,1.10
2022-09-27T23:39:05.749Z,0.90
2022-09-27T23:41:32.237Z,0.90
2022-09-27T23:43:58.739Z,1.17
2022-09-27T23:46:25.402Z,1.00
2022-09-27T23:48:51.916Z,0.77
2022-09-27T23:51:18.400Z,0.80
2022-09-27T23:53:46.281Z,0.90
2022-09-27T23:56:14.474Z,0.83
2022-09-27T23:58:42.470Z,1.00
